Time;durP1;ratioP1;P1;durP2;ratioP2;P2;SDS_P1;SDS_P2;PMS_P1;PMS_P2;Temp;Humidity;BMP_temperature;BMP_pressure;BME280_temperature;BME280_humidity;BME280_pressure;Samples;Min_cycle;Max_cycle;Signal;HPM_P1;HPM_P2
2022/09/09 00:01:30;;;;;;;25.05;15.10;;;14.00;99.90;;;;;;5023286;28;20053;-69
2022/09/09 00:04:17;;;;;;;24.73;14.98;;;13.90;99.90;;;;;;5039367;28;20046;-69
2022/09/09 00:06:50;;;;;;;20.95;14.63;;;13.90;99.90;;;;;;5009515;28;20118;-69
2022/09/09 00:09:18;;;;;;;21.80;15.32;;;13.90;99.90;;;;;;5027892;28;20462;-69
2022/09/09 00:12:21;;;;;;;20.80;14.85;;;13.90;99.90;;;;;;5044150;28;20429;-69
2022/09/09 00:15:11;;;;;;;20.17;14.00;;;13.90;99.90;;;;;;5024860;28;20041;-69
2022/09/09 00:17:48;;;;;;;19.83;14.95;;;13.90;99.90;;;;;;5009567;28;20512;-69
2022/09/09 00:20:25;;;;;;;20.25;15.05;;;13.80;99.90;;;;;;5044390;28;20567;-69
2022/09/09 00:23:03;;;;;;;17.52;14.30;;;13.80;99.90;;;;;;5046322;28;20038;-69
2022/09/09 00:25:52;;;;;;;20.73;15.15;;;13.80;99.90;;;;;;5028208;28;20045;-69
2022/09/09 00:28:26;;;;;;;20.50;14.32;;;13.80;99.90;;;;;;5006000;28;20484;-69
2022/09/09 00:30:52;;;;;;;21.42;15.10;;;13.80;99.90;;;;;;5025303;28;20483;-69
2022/09/09 00:33:22;;;;;;;24.80;15.90;;;13.80;99.90;;;;;;5024164;28;20045;-69
2022/09/09 00:35:51;;;;;;;20.88;14.57;;;13.70;99.90;;;;;;5044211;28;20045;-69
2022/09/09 00:38:41;;;;;;;21.88;14.90;;;13.70;99.90;;;;;;5002538;28;20049;-69
2022/09/09 00:41:29;;;;;;;20.98;14.90;;;13.70;99.90;;;;;;5038652;28;20448;-69
2022/09/09 00:44:03;;;;;;;22.65;15.40;;;13.70;99.90;;;;;;5024174;28;20056;-69
2022/09/09 00:46:47;;;;;;;23.23;15.05;;;13.70;99.90;;;;;;5013484;28;20041;-70
2022/09/09 00:49:25;;;;;;;24.25;16.33;;;13.70;99.90;;;;;;5022770;28;20098;-70
2022/09/09 00:51:57;;;;;;;24.50;15.75;;;13.60;99.90;;;;;;5022193;28;20504;-69
2022/09/09 00:54:35;;;;;;;27.55;15.18;;;13.60;99.90;;;;;;5021822;28;20065;-69
2022/09/09 00:57:19;;;;;;;23.13;14.60;;;13.60;99.90;;;;;;5029219;28;20385;-69
2022/09/09 00:59:52;;;;;;;20.35;14.45;;;13.60;99.90;;;;;;5040008;28;20052;-69
2022/09/09 01:02:34;;;;;;;23.30;14.32;;;13.50;99.90;;;;;;5020976;28;20052;-68
2022/09/09 01:05:27;;;;;;;25.35;14.68;;;13.50;99.90;;;;;;5041347;28;20044;-69
2022/09/09 01:07:54;;;;;;;21.63;14.48;;;13.50;99.90;;;;;;5007743;28;20052;-69
2022/09/09 01:10:46;;;;;;;21.70;14.50;;;13.50;99.90;;;;;;5042585;28;20124;-69
2022/09/09 01:13:38;;;;;;;20.63;13.57;;;13.50;99.90;;;;;;5021641;28;20049;-69
2022/09/09 01:16:07;;;;;;;19.73;13.27;;;13.40;99.90;;;;;;5038372;28;20079;-69
2022/09/09 01:18:39;;;;;;;20.80;13.55;;;13.50;99.90;;;;;;5015012;28;20048;-69
2022/09/09 01:21:17;;;;;;;22.08;13.50;;;13.40;99.90;;;;;;5044240;28;20052;-69
2022/09/09 01:24:05;;;;;;;23.45;13.30;;;13.40;99.90;;;;;;5026207;28;20501;-69
2022/09/09 01:26:40;;;;;;;18.25;12.13;;;13.40;99.90;;;;;;5028224;28;20057;-69
2022/09/09 01:29:15;;;;;;;17.25;12.75;;;13.40;99.90;;;;;;5022829;28;20079;-69
2022/09/09 01:31:58;;;;;;;24.25;13.30;;;13.40;99.90;;;;;;5022244;28;20057;-69
2022/09/09 01:34:28;;;;;;;18.70;12.75;;;13.40;99.90;;;;;;5022460;28;20052;-69
2022/09/09 01:37:04;;;;;;;23.00;13.57;;;13.30;99.90;;;;;;5027008;28;20091;-69
2022/09/09 01:39:31;;;;;;;22.30;13.05;;;13.40;99.90;;;;;;5037558;28;20046;-69
2022/09/09 01:41:57;;;;;;;18.08;12.13;;;13.30;99.90;;;;;;5042917;28;20386;-68
2022/09/09 01:44:24;;;;;;;18.23;11.65;;;13.30;99.90;;;;;;5042396;28;20059;-68
2022/09/09 01:46:50;;;;;;;16.65;11.57;;;13.30;99.90;;;;;;5009854;28;20068;-69
2022/09/09 01:49:17;;;;;;;18.55;12.93;;;13.20;99.90;;;;;;5022337;28;20052;-69
2022/09/09 01:51:45;;;;;;;18.50;12.35;;;13.30;99.90;;;;;;5037560;28;20132;-69
2022/09/09 01:54:11;;;;;;;17.77;11.63;;;13.20;99.90;;;;;;5022347;28;20072;-68
2022/09/09 01:57:08;;;;;;;14.98;11.32;;;13.20;99.90;;;;;;4992155;28;20127;-69
2022/09/09 01:59:49;;;;;;;18.83;11.27;;;13.20;99.90;;;;;;5039252;28;20052;-69
2022/09/09 02:02:22;;;;;;;19.38;10.95;;;13.20;99.90;;;;;;5019804;28;20045;-68
2022/09/09 02:04:53;;;;;;;17.33;10.30;;;13.20;99.90;;;;;;5041634;28;20053;-69
2022/09/09 02:07:38;;;;;;;17.65;10.77;;;13.20;99.90;;;;;;5006750;28;20057;-68
2022/09/09 02:10:11;;;;;;;14.63;9.98;;;13.20;99.90;;;;;;5028264;28;20132;-68
2022/09/09 02:12:43;;;;;;;17.23;10.23;;;13.20;99.90;;;;;;5017434;28;20049;-68
2022/09/09 02:15:29;;;;;;;13.70;10.05;;;13.20;99.90;;;;;;5023467;28;20115;-68
2022/09/09 02:17:58;;;;;;;15.23;10.82;;;13.20;99.90;;;;;;5027425;28;20044;-69
2022/09/09 02:20:27;;;;;;;16.10;11.05;;;13.30;99.90;;;;;;5025470;28;20046;-68
2022/09/09 02:22:55;;;;;;;15.20;11.48;;;13.20;99.90;;;;;;5043215;28;20161;-69
2022/09/09 02:25:25;;;;;;;17.45;11.60;;;13.30;99.90;;;;;;5037668;28;20080;-69
2022/09/09 02:27:53;;;;;;;18.60;11.93;;;13.30;99.90;;;;;;5023466;28;20073;-69
2022/09/09 02:30:20;;;;;;;21.10;13.82;;;13.30;99.90;;;;;;5020818;28;20056;-69
2022/09/09 02:32:48;;;;;;;19.13;12.27;;;13.40;99.90;;;;;;5040363;28;20534;-68
2022/09/09 02:35:18;;;;;;;20.02;13.02;;;13.40;99.90;;;;;;5040399;28;20432;-69
2022/09/09 02:37:47;;;;;;;21.48;13.68;;;13.40;99.90;;;;;;5004878;28;20142;-69
2022/09/09 02:40:15;;;;;;;18.92;13.70;;;13.50;99.90;;;;;;5021826;28;20523;-69
2022/09/09 02:42:43;;;;;;;19.13;13.15;;;13.50;99.90;;;;;;5041677;28;20181;-69
2022/09/09 02:45:11;;;;;;;21.50;14.48;;;13.50;99.90;;;;;;5024192;28;20345;-69
2022/09/09 02:48:00;;;;;;;21.70;14.88;;;13.50;99.90;;;;;;5024113;28;20072;-68
2022/09/09 02:50:33;;;;;;;22.23;14.23;;;13.50;99.90;;;;;;5019840;28;20488;-68
2022/09/09 02:53:20;;;;;;;25.23;15.10;;;13.60;99.90;;;;;;5019489;28;20455;-68
2022/09/09 02:56:01;;;;;;;25.10;15.93;;;13.60;99.90;;;;;;5042430;28;20528;-69
2022/09/09 02:58:27;;;;;;;25.30;16.15;;;13.60;99.90;;;;;;5023647;28;20518;-68
2022/09/09 03:00:53;;;;;;;22.80;15.50;;;13.60;99.90;;;;;;5001646;28;20099;-69
2022/09/09 03:03:20;;;;;;;23.00;14.73;;;13.60;99.90;;;;;;5017362;28;20496;-69
2022/09/09 03:05:46;;;;;;;21.38;14.65;;;13.70;99.90;;;;;;5023338;28;20037;-69
2022/09/09 03:08:12;;;;;;;23.40;15.20;;;13.70;99.90;;;;;;5005591;28;20511;-69
2022/09/09 03:10:39;;;;;;;20.88;14.32;;;13.70;99.90;;;;;;5019235;28;20066;-68
2022/09/09 03:13:05;;;;;;;20.63;14.38;;;13.70;99.90;;;;;;5042036;28;20528;-68
2022/09/09 03:15:33;;;;;;;21.55;14.30;;;13.70;99.90;;;;;;5046594;28;20116;-68
2022/09/09 03:17:59;;;;;;;21.08;14.38;;;13.70;99.90;;;;;;4994187;28;20445;-68
2022/09/09 03:20:27;;;;;;;21.63;14.35;;;13.70;99.90;;;;;;5044571;28;20046;-69
2022/09/09 03:22:53;;;;;;;22.23;14.88;;;13.70;99.90;;;;;;5026349;28;20080;-68
2022/09/09 03:25:19;;;;;;;23.67;14.77;;;13.70;99.90;;;;;;5022755;28;20136;-69
2022/09/09 03:27:45;;;;;;;20.17;13.93;;;13.70;99.90;;;;;;5029236;28;20162;-67
2022/09/09 03:30:11;;;;;;;23.25;14.77;;;13.70;99.90;;;;;;5027226;28;20547;-69
2022/09/09 03:32:37;;;;;;;23.00;14.68;;;13.70;99.90;;;;;;5025208;28;20508;-69
2022/09/09 03:35:03;;;;;;;26.45;15.13;;;13.70;99.90;;;;;;5023494;28;20053;-69
2022/09/09 03:37:29;;;;;;;21.73;15.20;;;13.70;99.90;;;;;;5009163;28;20173;-69
2022/09/09 03:39:54;;;;;;;24.55;15.52;;;13.70;99.90;;;;;;5025905;28;20131;-69
2022/09/09 03:42:20;;;;;;;25.17;15.73;;;13.70;99.90;;;;;;5046912;28;20037;-69
2022/09/09 03:44:49;;;;;;;23.85;14.73;;;13.70;99.90;;;;;;5044040;28;20523;-69
2022/09/09 03:47:19;;;;;;;20.20;14.38;;;13.70;99.90;;;;;;5027866;28;20041;-69
2022/09/09 03:49:45;;;;;;;23.67;14.82;;;13.70;99.90;;;;;;5024655;28;20045;-68
2022/09/09 03:52:11;;;;;;;23.48;14.70;;;13.70;99.90;;;;;;5024245;28;20052;-68
2022/09/09 03:54:37;;;;;;;19.60;13.25;;;13.70;99.90;;;;;;5025234;28;20049;-67
2022/09/09 03:57:04;;;;;;;23.95;14.60;;;13.70;99.90;;;;;;5030148;28;20512;-68
2022/09/09 03:59:30;;;;;;;21.02;13.02;;;13.80;99.90;;;;;;5040113;28;20053;-67
2022/09/09 04:01:57;;;;;;;18.80;13.07;;;13.80;99.90;;;;;;5041780;28;20194;-67
2022/09/09 04:04:22;;;;;;;17.48;12.10;;;13.80;99.90;;;;;;5042257;28;20040;-67
2022/09/09 04:06:48;;;;;;;18.20;12.25;;;13.80;99.90;;;;;;5028974;28;20518;-67
2022/09/09 04:09:14;;;;;;;19.45;11.80;;;13.80;99.90;;;;;;5040667;28;20081;-67
2022/09/09 04:11:40;;;;;;;18.10;11.68;;;13.80;99.90;;;;;;5041410;28;20076;-67
2022/09/09 04:14:06;;;;;;;19.67;11.40;;;13.90;99.90;;;;;;5042274;28;20107;-67
2022/09/09 04:16:32;;;;;;;15.77;10.70;;;13.90;99.90;;;;;;5013299;28;20619;-68
2022/09/09 04:18:59;;;;;;;18.00;10.68;;;13.90;99.90;;;;;;5040996;28;20049;-67
2022/09/09 04:21:26;;;;;;;18.70;10.23;;;13.90;99.90;;;;;;5044340;28;20450;-67
2022/09/09 04:23:51;;;;;;;18.05;10.38;;;13.90;99.90;;;;;;5039867;28;20046;-67
2022/09/09 04:26:17;;;;;;;16.15;10.77;;;13.90;99.90;;;;;;5017226;28;20045;-68
2022/09/09 04:28:43;;;;;;;16.10;9.77;;;13.90;99.90;;;;;;5021397;28;20037;-67
2022/09/09 04:31:14;;;;;;;17.35;10.10;;;14.00;99.90;;;;;;5024585;28;20196;-67
2022/09/09 04:33:40;;;;;;;15.13;9.70;;;13.90;99.90;;;;;;5021932;28;20041;-67
2022/09/09 04:36:06;;;;;;;16.38;10.57;;;13.90;99.90;;;;;;5020051;28;20103;-68
2022/09/09 04:38:32;;;;;;;17.25;10.15;;;13.90;99.90;;;;;;5015190;28;20072;-68
2022/09/09 04:40:57;;;;;;;18.88;9.90;;;13.90;99.90;;;;;;5024966;28;20041;-67
2022/09/09 04:43:25;;;;;;;15.70;9.88;;;13.90;99.90;;;;;;5023391;28;20055;-68
2022/09/09 04:45:52;;;;;;;15.88;9.52;;;13.90;99.90;;;;;;5045304;28;20053;-67
2022/09/09 04:48:19;;;;;;;17.45;9.82;;;14.00;99.90;;;;;;5007528;28;20431;-68
2022/09/09 04:50:53;;;;;;;14.95;9.93;;;13.90;99.90;;;;;;5008866;28;20091;-67
2022/09/09 04:53:18;;;;;;;18.17;10.15;;;14.00;99.90;;;;;;5024408;28;20071;-68
2022/09/09 04:55:44;;;;;;;14.20;9.82;;;14.00;99.90;;;;;;5026185;28;20053;-67
2022/09/09 04:58:09;;;;;;;16.08;9.50;;;14.00;99.90;;;;;;5005916;28;20041;-67
2022/09/09 05:00:35;;;;;;;17.10;9.65;;;14.00;99.90;;;;;;5022648;28;20048;-67
2022/09/09 05:03:05;;;;;;;15.27;9.70;;;14.00;99.90;;;;;;5042094;28;20450;-67
2022/09/09 05:05:33;;;;;;;13.55;9.32;;;14.10;99.90;;;;;;5042721;28;20064;-68
2022/09/09 05:08:08;;;;;;;17.30;10.13;;;14.00;99.90;;;;;;5023948;28;20045;-67
2022/09/09 05:10:36;;;;;;;17.15;10.18;;;14.10;99.90;;;;;;5040077;28;20041;-68
2022/09/09 05:13:02;;;;;;;18.50;9.45;;;14.10;99.90;;;;;;5024902;28;20091;-68
2022/09/09 05:15:28;;;;;;;17.10;10.45;;;14.10;99.90;;;;;;5024776;28;20476;-68
2022/09/09 05:18:00;;;;;;;17.35;10.77;;;14.10;99.90;;;;;;5009872;28;20142;-68
2022/09/09 05:20:27;;;;;;;15.52;10.13;;;14.10;99.90;;;;;;5043965;28;20042;-67
2022/09/09 05:22:56;;;;;;;17.98;10.77;;;14.10;99.90;;;;;;5040255;28;20394;-68
2022/09/09 05:25:24;;;;;;;16.33;10.25;;;14.10;99.90;;;;;;5025297;28;20053;-67
2022/09/09 05:27:50;;;;;;;14.77;10.18;;;14.10;99.90;;;;;;5026487;28;20034;-68
2022/09/09 05:30:18;;;;;;;16.83;10.43;;;14.10;99.90;;;;;;5042163;28;20041;-67
2022/09/09 05:32:44;;;;;;;18.58;11.15;;;14.10;99.90;;;;;;5039738;28;20045;-67
2022/09/09 05:35:09;;;;;;;15.05;10.25;;;14.10;99.90;;;;;;5020886;28;20095;-67
2022/09/09 05:37:35;;;;;;;18.15;11.18;;;14.10;99.90;;;;;;5027800;28;21164;-67
2022/09/09 05:40:01;;;;;;;17.45;11.07;;;14.10;99.90;;;;;;5019241;28;20467;-68
2022/09/09 05:42:30;;;;;;;18.17;11.88;;;14.10;99.90;;;;;;5024952;28;20362;-67
2022/09/09 05:44:57;;;;;;;16.65;11.07;;;14.10;99.90;;;;;;5023870;28;20463;-67
2022/09/09 05:47:23;;;;;;;15.45;11.15;;;14.10;99.90;;;;;;5007912;28;20057;-68
2022/09/09 05:49:49;;;;;;;17.70;11.65;;;14.10;99.90;;;;;;5043060;28;20049;-67
2022/09/09 05:52:15;;;;;;;19.10;12.48;;;14.10;99.90;;;;;;5040994;28;20032;-68
2022/09/09 05:54:42;;;;;;;19.08;11.88;;;14.00;99.90;;;;;;5020631;28;20041;-68
2022/09/09 05:57:08;;;;;;;19.17;12.43;;;14.10;99.90;;;;;;5024982;28;20512;-68
2022/09/09 05:59:33;;;;;;;18.60;12.50;;;14.10;99.90;;;;;;5040791;28;20041;-68
2022/09/09 06:01:59;;;;;;;19.10;12.82;;;14.10;99.90;;;;;;5044438;28;20456;-68
2022/09/09 06:04:24;;;;;;;18.75;12.00;;;14.10;99.90;;;;;;5021885;28;20546;-68
2022/09/09 06:06:50;;;;;;;19.17;13.13;;;14.10;99.90;;;;;;5027071;28;20045;-68
2022/09/09 06:09:16;;;;;;;21.10;12.88;;;14.10;99.90;;;;;;5022738;28;20627;-67
2022/09/09 06:11:42;;;;;;;18.25;12.70;;;14.10;99.90;;;;;;5041376;28;20464;-68
2022/09/09 06:14:08;;;;;;;21.45;13.13;;;14.10;99.90;;;;;;5020736;28;20041;-67
2022/09/09 06:16:35;;;;;;;19.02;13.48;;;14.10;99.90;;;;;;5009449;28;20045;-68
2022/09/09 06:19:05;;;;;;;22.80;14.38;;;14.10;99.90;;;;;;5018890;28;20037;-67
2022/09/09 06:21:36;;;;;;;19.97;13.33;;;14.10;99.90;;;;;;5008851;28;20562;-67
2022/09/09 06:24:03;;;;;;;21.00;12.77;;;14.20;99.90;;;;;;5009993;28;20138;-67
2022/09/09 06:26:34;;;;;;;23.90;14.32;;;14.10;99.90;;;;;;5020687;28;20602;-67
2022/09/09 06:29:02;;;;;;;19.40;12.18;;;14.20;99.90;;;;;;5032767;28;20079;-67
2022/09/09 06:31:33;;;;;;;20.90;13.30;;;14.20;99.90;;;;;;5013689;28;20053;-67
2022/09/09 06:34:01;;;;;;;18.27;13.02;;;14.20;99.90;;;;;;5017629;28;20041;-68
2022/09/09 06:36:29;;;;;;;19.65;12.32;;;14.30;99.90;;;;;;5019949;28;20912;-67
2022/09/09 06:38:56;;;;;;;21.90;12.90;;;14.30;99.90;;;;;;5015557;28;20045;-68
2022/09/09 06:41:25;;;;;;;18.95;12.23;;;14.30;99.90;;;;;;5011230;28;20120;-68
2022/09/09 06:43:51;;;;;;;19.58;12.40;;;14.40;99.90;;;;;;5018191;28;20452;-68
2022/09/09 06:46:29;;;;;;;16.73;11.85;;;14.40;99.90;;;;;;5003534;28;20048;-68
2022/09/09 06:48:57;;;;;;;16.58;11.68;;;14.40;99.90;;;;;;5028865;28;20041;-67
2022/09/09 06:51:23;;;;;;;19.95;11.65;;;14.50;99.90;;;;;;5014006;28;20056;-68
2022/09/09 06:53:55;;;;;;;15.20;11.05;;;14.60;99.90;;;;;;5030860;28;20381;-67
2022/09/09 06:56:27;;;;;;;;;;;14.60;99.90;;;;;;5002919;28;20045;-69
2022/09/09 06:58:54;;;;;;;17.30;11.15;;;14.60;99.90;;;;;;5027803;28;19929;-67
2022/09/09 07:01:23;;;;;;;15.07;10.88;;;14.60;99.90;;;;;;5030987;28;20052;-68
2022/09/09 07:03:51;;;;;;;14.07;10.13;;;14.60;99.90;;;;;;5012461;28;20049;-68
2022/09/09 07:06:23;;;;;;;15.88;9.73;;;14.70;99.90;;;;;;5022765;28;20098;-69
2022/09/09 07:08:57;;;;;;;14.80;9.32;;;14.70;99.90;;;;;;5027981;28;20063;-68
2022/09/09 07:11:26;;;;;;;13.38;10.32;;;14.70;99.90;;;;;;5014019;28;20156;-68
2022/09/09 07:13:52;;;;;;;13.25;10.02;;;14.70;99.90;;;;;;5031978;28;20045;-68
2022/09/09 07:16:20;;;;;;;14.48;9.75;;;14.70;99.90;;;;;;5005987;28;20045;-69
2022/09/09 07:18:46;;;;;;;15.02;10.30;;;14.60;99.90;;;;;;5006562;28;20049;-67
2022/09/09 07:21:13;;;;;;;14.75;10.30;;;14.60;99.90;;;;;;5030797;28;20523;-68
2022/09/09 07:23:41;;;;;;;14.55;10.18;;;14.60;99.90;;;;;;5034170;28;20504;-68
2022/09/09 07:26:15;;;;;;;16.52;9.65;;;14.60;99.90;;;;;;5015626;28;20049;-69
2022/09/09 07:28:41;;;;;;;15.13;9.50;;;14.70;99.90;;;;;;5024692;28;20049;-68
2022/09/09 07:31:18;;;;;;;12.45;9.35;;;14.70;99.90;;;;;;5029271;28;20652;-68
2022/09/09 07:33:44;;;;;;;15.63;9.95;;;14.70;99.90;;;;;;5012217;28;20045;-68
2022/09/09 07:36:17;;;;;;;12.20;9.57;;;14.80;99.90;;;;;;5017972;28;20049;-69
2022/09/09 07:38:48;;;;;;;12.48;9.38;;;14.80;99.90;;;;;;4997293;28;20136;-68
2022/09/09 07:41:18;;;;;;;16.42;9.38;;;14.80;99.90;;;;;;5026263;28;20049;-69
2022/09/09 07:43:47;;;;;;;12.40;9.48;;;14.90;99.90;;;;;;5010632;28;20053;-67
2022/09/09 07:46:14;;;;;;;13.13;9.05;;;14.90;99.90;;;;;;5010279;28;20496;-69
2022/09/09 07:48:51;;;;;;;15.52;10.40;;;14.90;99.90;;;;;;5024639;28;20393;-69
2022/09/09 07:51:19;;;;;;;15.23;9.23;;;15.00;99.90;;;;;;5028187;28;20057;-69
2022/09/09 07:53:52;;;;;;;11.32;8.65;;;14.90;99.90;;;;;;5012070;28;20042;-69
2022/09/09 07:56:18;;;;;;;11.48;8.65;;;15.00;99.90;;;;;;5018517;28;20142;-69
2022/09/09 07:58:48;;;;;;;11.40;8.88;;;15.00;99.90;;;;;;5029528;28;20133;-68
2022/09/09 08:01:22;;;;;;;12.60;8.85;;;15.00;99.90;;;;;;5033845;28;20041;-69
2022/09/09 08:03:59;;;;;;;13.30;8.43;;;15.10;99.90;;;;;;5031508;28;20033;-69
2022/09/09 08:06:26;;;;;;;9.85;8.23;;;15.20;99.90;;;;;;5021027;28;20389;-68
2022/09/09 08:08:54;;;;;;;11.43;7.55;;;15.30;99.90;;;;;;5031546;28;20053;-69
2022/09/09 08:11:22;;;;;;;10.57;7.50;;;15.20;99.90;;;;;;5019688;28;20056;-69
2022/09/09 08:13:49;;;;;;;11.95;8.18;;;15.20;99.90;;;;;;5033076;28;20037;-69
2022/09/09 08:16:18;;;;;;;10.38;7.22;;;15.30;99.90;;;;;;4992695;28;20046;-69
2022/09/09 08:18:44;;;;;;;14.95;7.68;;;15.30;99.90;;;;;;5027625;28;20048;-69
2022/09/09 08:21:17;;;;;;;11.50;7.43;;;15.40;99.90;;;;;;5033270;28;20045;-69
2022/09/09 08:23:45;;;;;;;13.55;7.47;;;15.40;99.90;;;;;;5015912;28;20081;-69
2022/09/09 08:26:15;;;;;;;14.35;7.60;;;15.50;99.90;;;;;;5008619;28;20060;-69
2022/09/09 08:28:42;;;;;;;10.25;7.10;;;15.50;99.90;;;;;;5011632;28;20049;-68
2022/09/09 08:31:10;;;;;;;12.10;7.40;;;15.60;99.90;;;;;;5015857;28;20040;-69
2022/09/09 08:33:38;;;;;;;11.10;7.47;;;15.60;99.90;;;;;;5037400;28;20728;-69
2022/09/09 08:36:05;;;;;;;12.07;7.03;;;15.60;99.90;;;;;;5034574;28;20041;-69
2022/09/09 08:38:30;;;;;;;10.88;7.10;;;15.70;99.90;;;;;;5002695;28;20132;-69
2022/09/09 08:41:08;;;;;;;11.52;7.00;;;15.80;99.90;;;;;;5014900;28;20448;-68
2022/09/09 08:43:34;;;;;;;14.30;6.82;;;15.90;99.90;;;;;;5033667;28;20419;-68
2022/09/09 08:46:33;;;;;;;10.15;6.68;;;16.00;99.90;;;;;;5034740;28;20051;-68
2022/09/09 08:49:37;;;;;;;10.10;6.75;;;16.00;99.90;;;;;;5030857;28;20060;-69
2022/09/09 08:52:10;;;;;;;9.05;6.25;;;16.00;99.90;;;;;;5035541;28;20435;-67
2022/09/09 08:54:36;;;;;;;13.32;5.93;;;16.00;99.90;;;;;;5016962;28;20138;-69
2022/09/09 08:57:09;;;;;;;11.25;6.30;;;16.00;99.90;;;;;;5020264;28;20656;-69
2022/09/09 08:59:36;;;;;;;13.00;5.80;;;16.00;99.90;;;;;;5013222;28;20179;-69
2022/09/09 09:02:16;;;;;;;9.25;6.55;;;16.10;99.90;;;;;;5034050;28;20074;-69
2022/09/09 09:04:58;;;;;;;11.32;5.97;;;16.20;99.90;;;;;;5033061;28;20049;-69
2022/09/09 09:08:03;;;;;;;10.63;6.10;;;16.20;99.90;;;;;;5013396;28;20099;-69
2022/09/09 09:10:44;;;;;;;10.45;6.35;;;16.40;99.90;;;;;;5032541;28;20611;-68
2022/09/09 09:13:20;;;;;;;12.75;6.10;;;16.30;99.90;;;;;;5019336;28;20053;-69
2022/09/09 09:15:59;;;;;;;10.50;6.38;;;16.40;99.90;;;;;;5034112;28;20055;-69
2022/09/09 09:18:26;;;;;;;11.20;5.50;;;16.50;99.90;;;;;;5000496;28;20037;-68
2022/09/09 09:21:03;;;;;;;15.95;5.65;;;16.50;99.90;;;;;;5014784;28;20419;-68
2022/09/09 09:23:39;;;;;;;9.00;5.28;;;16.60;99.90;;;;;;5016687;28;20087;-68
2022/09/09 09:26:09;;;;;;;12.32;5.60;;;16.60;99.90;;;;;;5029192;28;20062;-69
2022/09/09 09:28:36;;;;;;;9.95;4.97;;;16.70;99.90;;;;;;5027973;28;20099;-68
2022/09/09 09:31:07;;;;;;;9.20;5.10;;;16.80;99.90;;;;;;5033420;28;20116;-68
2022/09/09 09:33:40;;;;;;;11.85;5.28;;;16.90;99.90;;;;;;5032201;28;20048;-68
2022/09/09 09:36:09;;;;;;;9.68;5.53;;;17.10;99.90;;;;;;5028096;28;20080;-69
2022/09/09 09:38:37;;;;;;;10.18;5.05;;;17.20;99.90;;;;;;5025885;28;20272;-69
2022/09/09 09:41:03;;;;;;;10.10;4.82;;;17.30;99.90;;;;;;5025753;28;20359;-69
2022/09/09 09:43:34;;;;;;;9.07;4.38;;;17.30;99.90;;;;;;5028537;28;20049;-69
2022/09/09 09:46:03;;;;;;;12.27;4.28;;;17.40;99.90;;;;;;4999239;28;20290;-69
2022/09/09 09:48:28;;;;;;;8.68;3.20;;;17.50;99.90;;;;;;5000179;28;20077;-69
2022/09/09 09:51:05;;;;;;;11.05;3.90;;;17.50;99.90;;;;;;5033264;28;20143;-69
2022/09/09 09:53:34;;;;;;;10.95;4.28;;;17.70;99.90;;;;;;5013887;28;20050;-69
2022/09/09 09:56:04;;;;;;;14.60;3.63;;;17.90;99.90;;;;;;5036899;28;20107;-69
2022/09/09 09:58:33;;;;;;;8.88;3.33;;;18.00;99.90;;;;;;4999332;28;20056;-69
2022/09/09 10:01:00;;;;;;;7.97;3.05;;;17.90;99.90;;;;;;5037216;28;21450;-69
2022/09/09 10:03:29;;;;;;;9.00;3.40;;;17.80;99.90;;;;;;5030677;28;20056;-69
2022/09/09 10:05:56;;;;;;;10.90;3.40;;;17.70;99.90;;;;;;5033816;28;20052;-69
2022/09/09 10:08:26;;;;;;;11.50;3.58;;;17.90;99.90;;;;;;5019323;28;20057;-69
2022/09/09 10:11:30;;;;;;;11.77;3.47;;;17.80;99.90;;;;;;5032259;28;20045;-69
2022/09/09 10:14:17;;;;;;;10.20;3.40;;;17.70;99.90;;;;;;5030883;28;20033;-69
2022/09/09 10:16:52;;;;;;;10.05;3.33;;;17.70;99.90;;;;;;5015806;28;20132;-70
2022/09/09 10:19:30;;;;;;;9.95;3.15;;;17.90;99.90;;;;;;5013879;28;20079;-69
2022/09/09 10:22:23;;;;;;;10.60;2.83;;;17.80;99.90;;;;;;5010074;28;20489;-69
2022/09/09 10:25:17;;;;;;;9.43;2.97;;;17.80;99.90;;;;;;5015682;28;20065;-69
2022/09/09 10:28:01;;;;;;;12.02;2.67;;;17.80;99.90;;;;;;4985918;28;20073;-69
2022/09/09 10:31:06;;;;;;;11.75;3.00;;;17.70;99.90;;;;;;5031921;28;20053;-69
2022/09/09 10:33:49;;;;;;;9.27;2.80;;;17.80;99.90;;;;;;5032835;28;20408;-69
2022/09/09 10:36:29;;;;;;;7.82;2.70;;;17.70;99.90;;;;;;5017776;28;20420;-69
2022/09/09 10:39:17;;;;;;;14.15;3.67;;;17.80;99.90;;;;;;5010548;28;20504;-69
2022/09/09 10:41:43;;;;;;;10.10;2.97;;;18.00;99.90;;;;;;5033460;28;20048;-69
2022/09/09 10:44:23;;;;;;;10.02;3.25;;;18.30;99.90;;;;;;5015213;28;20518;-69
2022/09/09 10:47:06;;;;;;;7.75;3.08;;;18.40;99.90;;;;;;5019269;28;20559;-69
2022/09/09 10:49:52;;;;;;;10.40;2.70;;;18.20;99.90;;;;;;5027510;28;20131;-69
2022/09/09 10:52:47;;;;;;;10.43;2.60;;;18.10;99.90;;;;;;5010321;28;20119;-69
2022/09/09 10:55:20;;;;;;;9.50;2.80;;;18.30;99.90;;;;;;5031078;28;20067;-69
2022/09/09 10:57:48;;;;;;;8.02;2.63;;;18.60;99.90;;;;;;5012782;28;20582;-69
2022/09/09 11:00:23;;;;;;;9.27;2.65;;;18.70;99.90;;;;;;5033607;28;20059;-68
2022/09/09 11:02:56;;;;;;;9.40;2.15;;;18.50;99.90;;;;;;5028489;28;20081;-68
2022/09/09 11:05:35;;;;;;;5.88;1.55;;;18.60;99.90;;;;;;5032938;28;20063;-70
2022/09/09 11:08:31;;;;;;;12.02;2.10;;;18.60;99.90;;;;;;5019276;28;20531;-70
2022/09/09 11:11:26;;;;;;;6.05;1.63;;;18.90;99.90;;;;;;5032435;28;20103;-69
2022/09/09 11:13:51;;;;;;;8.75;1.70;;;19.10;99.90;;;;;;5031918;28;20041;-69
2022/09/09 11:16:36;;;;;;;4.50;1.70;;;19.00;99.90;;;;;;5003080;28;20068;-69
2022/09/09 11:19:04;;;;;;;5.55;2.30;;;19.10;99.90;;;;;;5028460;28;20106;-69
2022/09/09 11:21:37;;;;;;;9.55;1.70;;;19.00;99.90;;;;;;5007435;28;20812;-69
2022/09/09 11:24:13;;;;;;;5.60;1.77;;;19.10;99.90;;;;;;5031743;28;20567;-69
2022/09/09 11:26:46;;;;;;;8.35;1.92;;;19.30;99.90;;;;;;4997432;28;20124;-69
2022/09/09 11:29:57;;;;;;;4.50;2.00;;;19.40;99.90;;;;;;5029903;28;20072;-69
2022/09/09 11:33:04;;;;;;;6.05;2.00;;;19.50;99.90;;;;;;5032390;28;20049;-69
2022/09/09 11:35:38;;;;;;;6.57;1.73;;;19.30;99.90;;;;;;5019392;28;20089;-69
2022/09/09 11:38:28;;;;;;;5.40;1.88;;;19.10;99.90;;;;;;5002949;28;20057;-69
2022/09/09 11:41:02;;;;;;;8.48;2.20;;;19.30;99.90;;;;;;5018383;28;20496;-69
2022/09/09 11:43:32;;;;;;;4.13;1.55;;;19.30;99.90;;;;;;5020535;28;20613;-69
2022/09/09 11:46:02;;;;;;;6.28;1.40;;;19.10;99.90;;;;;;5037431;28;20339;-69
2022/09/09 11:48:35;;;;;;;7.40;2.10;;;19.30;99.90;;;;;;5019794;28;20061;-69
2022/09/09 11:51:30;;;;;;;5.88;1.90;;;19.30;99.90;;;;;;5036261;28;20283;-69
2022/09/09 11:54:02;;;;;;;8.23;1.90;;;19.10;99.90;;;;;;5032158;28;20292;-69
2022/09/09 11:56:47;;;;;;;6.35;1.65;;;19.10;99.90;;;;;;5008469;28;20204;-69
2022/09/09 11:59:25;;;;;;;4.47;1.50;;;19.00;99.90;;;;;;5031609;28;20064;-69
2022/09/09 12:01:56;;;;;;;5.13;1.52;;;19.00;99.90;;;;;;5033295;28;20989;-69
2022/09/09 12:04:24;;;;;;;6.57;1.38;;;18.90;99.90;;;;;;5031542;28;20359;-69
2022/09/09 12:07:02;;;;;;;14.85;2.17;;;19.10;99.90;;;;;;5000410;28;20398;-69
2022/09/09 12:09:33;;;;;;;7.68;2.08;;;19.20;99.90;;;;;;5032359;28;20060;-69
2022/09/09 12:12:13;;;;;;;8.82;1.60;;;19.20;99.90;;;;;;5001528;28;20049;-69
2022/09/09 12:14:43;;;;;;;7.68;1.83;;;19.20;99.90;;;;;;5020731;28;20072;-69
2022/09/09 12:17:14;;;;;;;8.50;1.85;;;19.30;99.90;;;;;;4986884;28;20147;-68
2022/09/09 12:19:40;;;;;;;8.82;1.73;;;19.10;99.90;;;;;;5006566;28;20719;-69
2022/09/09 12:22:05;;;;;;;5.90;1.38;;;19.20;99.90;;;;;;5015784;28;20149;-68
2022/09/09 12:24:55;;;;;;;6.60;1.48;;;19.20;99.90;;;;;;5033645;28;20077;-70
2022/09/09 12:27:30;;;;;;;6.63;1.48;;;19.20;99.90;;;;;;5016047;28;20057;-69
2022/09/09 12:30:03;;;;;;;7.97;1.98;;;19.20;99.90;;;;;;5034458;28;20041;-69
2022/09/09 12:32:29;;;;;;;6.30;1.80;;;18.90;99.90;;;;;;5017864;28;20052;-68
2022/09/09 12:35:21;;;;;;;8.77;1.65;;;18.80;99.90;;;;;;5033653;28;20404;-69
2022/09/09 12:37:57;;;;;;;6.88;1.55;;;18.90;99.90;;;;;;5020738;28;20041;-69
2022/09/09 12:40:34;;;;;;;7.00;1.90;;;18.80;99.90;;;;;;5032754;28;20049;-68
2022/09/09 12:43:01;;;;;;;7.28;1.70;;;18.80;99.90;;;;;;5033694;28;20057;-69
2022/09/09 12:45:31;;;;;;;4.85;1.60;;;18.70;99.90;;;;;;5030768;28;20404;-69
2022/09/09 12:48:03;;;;;;;9.02;1.70;;;18.60;99.90;;;;;;5016994;28;20099;-69
2022/09/09 12:50:37;;;;;;;6.13;1.60;;;19.00;99.90;;;;;;5001535;28;20056;-69
2022/09/09 12:53:34;;;;;;;4.40;1.35;;;18.90;99.90;;;;;;5033784;28;20054;-69
2022/09/09 12:56:18;;;;;;;7.50;1.60;;;19.00;99.90;;;;;;5033684;28;20059;-69
2022/09/09 12:58:47;;;;;;;8.18;1.80;;;19.10;99.90;;;;;;5008020;28;20384;-69
2022/09/09 13:01:25;;;;;;;6.70;1.15;;;19.20;99.90;;;;;;5037167;28;20063;-69